Terminal Aerodrome Forecast
Issued by NWS

Home | Current Version | Previous Version | Text Only | Print | Product List | Glossary On
Versions: 1 2 3 4 5 6 7 8 9 10 11 12
000
FTUS44 KJAN 292320
TAFGTR
TAF
KGTR 292320Z 3000/3024 16011G20KT P6SM SCT250
     FM300600 17011G21KT P6SM BKN015 BKN250
     FM301100 17011G20KT 6SM -SHRA VCTS BKN015CB OVC130
     FM301600 19013G25KT 6SM -SHRA VCTS SCT020 BKN030CB=

USA.gov is the U.S. government's official web portal to all federal, state and local government web resources and services.